sensor_id;sensor_type;location;lat;lon;timestamp;P1;durP1;ratioP1;P2;durP2;ratioP2
22737;SDS011;11536;50.860;4.286;2024-03-08T00:00:18;22.80;;;9.20;;
22737;SDS011;11536;50.860;4.286;2024-03-08T00:02:44;20.85;;;9.10;;
22737;SDS011;11536;50.860;4.286;2024-03-08T00:05:11;23.48;;;8.82;;
22737;SDS011;11536;50.860;4.286;2024-03-08T00:07:38;22.58;;;8.75;;
22737;SDS011;11536;50.860;4.286;2024-03-08T00:10:04;19.55;;;8.90;;
22737;SDS011;11536;50.860;4.286;2024-03-08T00:12:31;18.45;;;8.95;;
22737;SDS011;11536;50.860;4.286;2024-03-08T00:14:57;21.70;;;8.82;;
22737;SDS011;11536;50.860;4.286;2024-03-08T00:17:22;20.33;;;9.30;;
22737;SDS011;11536;50.860;4.286;2024-03-08T00:19:48;21.67;;;8.57;;
22737;SDS011;11536;50.860;4.286;2024-03-08T00:22:18;23.20;;;9.18;;
22737;SDS011;11536;50.860;4.286;2024-03-08T00:24:43;20.80;;;9.05;;
22737;SDS011;11536;50.860;4.286;2024-03-08T00:27:10;23.40;;;9.65;;
22737;SDS011;11536;50.860;4.286;2024-03-08T00:29:36;19.13;;;8.20;;
22737;SDS011;11536;50.860;4.286;2024-03-08T00:32:04;25.40;;;8.80;;
22737;SDS011;11536;50.860;4.286;2024-03-08T00:34:29;19.27;;;8.35;;
22737;SDS011;11536;50.860;4.286;2024-03-08T00:36:56;22.95;;;9.32;;
22737;SDS011;11536;50.860;4.286;2024-03-08T00:39:23;19.80;;;9.15;;
22737;SDS011;11536;50.860;4.286;2024-03-08T00:41:49;21.55;;;7.75;;
22737;SDS011;11536;50.860;4.286;2024-03-08T00:44:14;20.70;;;8.55;;
22737;SDS011;11536;50.860;4.286;2024-03-08T00:46:40;19.17;;;8.65;;
22737;SDS011;11536;50.860;4.286;2024-03-08T00:49:05;22.42;;;8.30;;
22737;SDS011;11536;50.860;4.286;2024-03-08T00:51:32;19.08;;;8.10;;
22737;SDS011;11536;50.860;4.286;2024-03-08T00:53:57;21.33;;;9.32;;
22737;SDS011;11536;50.860;4.286;2024-03-08T00:56:23;19.33;;;8.63;;
22737;SDS011;11536;50.860;4.286;2024-03-08T00:58:50;23.00;;;8.15;;
22737;SDS011;11536;50.860;4.286;2024-03-08T01:01:16;19.77;;;8.93;;
22737;SDS011;11536;50.860;4.286;2024-03-08T01:03:43;21.10;;;8.93;;
22737;SDS011;11536;50.860;4.286;2024-03-08T01:06:09;20.48;;;8.70;;
22737;SDS011;11536;50.860;4.286;2024-03-08T01:08:36;21.50;;;8.88;;
22737;SDS011;11536;50.860;4.286;2024-03-08T01:11:03;20.25;;;9.05;;
22737;SDS011;11536;50.860;4.286;2024-03-08T01:13:30;24.20;;;9.70;;
22737;SDS011;11536;50.860;4.286;2024-03-08T01:15:55;21.60;;;8.40;;
22737;SDS011;11536;50.860;4.286;2024-03-08T01:18:21;21.67;;;9.00;;
22737;SDS011;11536;50.860;4.286;2024-03-08T01:20:47;19.73;;;8.73;;
22737;SDS011;11536;50.860;4.286;2024-03-08T01:23:13;22.90;;;8.98;;
22737;SDS011;11536;50.860;4.286;2024-03-08T01:25:38;22.83;;;8.48;;
22737;SDS011;11536;50.860;4.286;2024-03-08T01:28:06;22.30;;;9.82;;
22737;SDS011;11536;50.860;4.286;2024-03-08T01:30:32;18.33;;;9.27;;
22737;SDS011;11536;50.860;4.286;2024-03-08T01:32:59;21.33;;;8.82;;
22737;SDS011;11536;50.860;4.286;2024-03-08T01:35:25;21.92;;;9.38;;
22737;SDS011;11536;50.860;4.286;2024-03-08T01:37:52;26.85;;;10.20;;
22737;SDS011;11536;50.860;4.286;2024-03-08T01:40:18;19.63;;;8.77;;
22737;SDS011;11536;50.860;4.286;2024-03-08T01:42:43;23.35;;;9.70;;
22737;SDS011;11536;50.860;4.286;2024-03-08T01:45:09;21.05;;;9.35;;
22737;SDS011;11536;50.860;4.286;2024-03-08T01:47:35;21.30;;;9.85;;
22737;SDS011;11536;50.860;4.286;2024-03-08T01:50:02;22.90;;;10.85;;
22737;SDS011;11536;50.860;4.286;2024-03-08T01:52:31;25.55;;;9.63;;
22737;SDS011;11536;50.860;4.286;2024-03-08T01:55:00;22.75;;;10.02;;
22737;SDS011;11536;50.860;4.286;2024-03-08T01:57:28;25.30;;;10.55;;
22737;SDS011;11536;50.860;4.286;2024-03-08T01:59:55;21.92;;;9.27;;
22737;SDS011;11536;50.860;4.286;2024-03-08T02:02:22;29.35;;;11.65;;
22737;SDS011;11536;50.860;4.286;2024-03-08T02:04:48;23.80;;;10.18;;
22737;SDS011;11536;50.860;4.286;2024-03-08T02:07:14;23.25;;;10.40;;
22737;SDS011;11536;50.860;4.286;2024-03-08T02:09:39;26.05;;;9.95;;
22737;SDS011;11536;50.860;4.286;2024-03-08T02:12:05;23.45;;;10.40;;
22737;SDS011;11536;50.860;4.286;2024-03-08T02:14:33;21.67;;;10.23;;
22737;SDS011;11536;50.860;4.286;2024-03-08T02:17:02;27.13;;;10.23;;
22737;SDS011;11536;50.860;4.286;2024-03-08T02:19:27;23.15;;;9.57;;
22737;SDS011;11536;50.860;4.286;2024-03-08T02:21:53;26.02;;;10.98;;
22737;SDS011;11536;50.860;4.286;2024-03-08T02:24:19;23.73;;;9.98;;
22737;SDS011;11536;50.860;4.286;2024-03-08T02:26:45;24.27;;;10.57;;
22737;SDS011;11536;50.860;4.286;2024-03-08T02:29:11;23.73;;;10.43;;
22737;SDS011;11536;50.860;4.286;2024-03-08T02:31:37;25.75;;;11.48;;
22737;SDS011;11536;50.860;4.286;2024-03-08T02:34:04;22.42;;;10.63;;
22737;SDS011;11536;50.860;4.286;2024-03-08T02:36:30;21.00;;;10.77;;
22737;SDS011;11536;50.860;4.286;2024-03-08T02:38:59;26.02;;;11.00;;
22737;SDS011;11536;50.860;4.286;2024-03-08T02:41:27;23.15;;;11.55;;
22737;SDS011;11536;50.860;4.286;2024-03-08T02:43:53;23.90;;;10.43;;
22737;SDS011;11536;50.860;4.286;2024-03-08T02:46:20;29.05;;;11.98;;
22737;SDS011;11536;50.860;4.286;2024-03-08T02:48:45;25.67;;;10.65;;
22737;SDS011;11536;50.860;4.286;2024-03-08T02:51:12;29.15;;;11.27;;
22737;SDS011;11536;50.860;4.286;2024-03-08T02:53:38;26.33;;;12.63;;
22737;SDS011;11536;50.860;4.286;2024-03-08T02:56:04;24.13;;;10.70;;
22737;SDS011;11536;50.860;4.286;2024-03-08T02:58:33;26.65;;;11.20;;
22737;SDS011;11536;50.860;4.286;2024-03-08T03:00:59;25.90;;;10.68;;
22737;SDS011;11536;50.860;4.286;2024-03-08T03:03:25;25.52;;;11.43;;
22737;SDS011;11536;50.860;4.286;2024-03-08T03:05:51;26.85;;;12.10;;
22737;SDS011;11536;50.860;4.286;2024-03-08T03:08:20;23.17;;;11.27;;
22737;SDS011;11536;50.860;4.286;2024-03-08T03:10:46;25.75;;;11.88;;
22737;SDS011;11536;50.860;4.286;2024-03-08T03:13:12;24.35;;;11.27;;
22737;SDS011;11536;50.860;4.286;2024-03-08T03:15:39;27.85;;;11.82;;
22737;SDS011;11536;50.860;4.286;2024-03-08T03:18:06;24.98;;;11.50;;
22737;SDS011;11536;50.860;4.286;2024-03-08T03:20:33;28.60;;;13.43;;
22737;SDS011;11536;50.860;4.286;2024-03-08T03:23:02;28.58;;;11.70;;
22737;SDS011;11536;50.860;4.286;2024-03-08T03:25:28;24.20;;;12.30;;
22737;SDS011;11536;50.860;4.286;2024-03-08T03:27:58;22.80;;;11.35;;
22737;SDS011;11536;50.860;4.286;2024-03-08T03:30:25;28.00;;;11.98;;
22737;SDS011;11536;50.860;4.286;2024-03-08T03:32:58;23.05;;;11.38;;
22737;SDS011;11536;50.860;4.286;2024-03-08T03:35:25;26.52;;;11.95;;
22737;SDS011;11536;50.860;4.286;2024-03-08T03:37:52;26.23;;;11.57;;
22737;SDS011;11536;50.860;4.286;2024-03-08T03:40:29;24.15;;;11.75;;
22737;SDS011;11536;50.860;4.286;2024-03-08T03:42:56;26.45;;;12.57;;
22737;SDS011;11536;50.860;4.286;2024-03-08T03:45:22;27.95;;;12.88;;
22737;SDS011;11536;50.860;4.286;2024-03-08T03:47:51;24.77;;;12.40;;
22737;SDS011;11536;50.860;4.286;2024-03-08T03:50:17;24.08;;;11.32;;
22737;SDS011;11536;50.860;4.286;2024-03-08T03:52:44;25.80;;;12.50;;
22737;SDS011;11536;50.860;4.286;2024-03-08T03:55:10;25.33;;;12.30;;
22737;SDS011;11536;50.860;4.286;2024-03-08T03:57:37;22.77;;;11.60;;
22737;SDS011;11536;50.860;4.286;2024-03-08T04:00:03;25.13;;;12.73;;
22737;SDS011;11536;50.860;4.286;2024-03-08T04:02:30;26.40;;;12.40;;
22737;SDS011;11536;50.860;4.286;2024-03-08T04:04:55;27.23;;;12.52;;
22737;SDS011;11536;50.860;4.286;2024-03-08T04:07:21;24.13;;;11.68;;
22737;SDS011;11536;50.860;4.286;2024-03-08T04:09:46;26.70;;;13.20;;
22737;SDS011;11536;50.860;4.286;2024-03-08T04:12:12;25.73;;;12.48;;
22737;SDS011;11536;50.860;4.286;2024-03-08T04:14:41;25.25;;;12.48;;
22737;SDS011;11536;50.860;4.286;2024-03-08T04:17:07;26.60;;;14.45;;
22737;SDS011;11536;50.860;4.286;2024-03-08T04:19:37;26.02;;;12.40;;
22737;SDS011;11536;50.860;4.286;2024-03-08T04:22:03;24.98;;;12.85;;
22737;SDS011;11536;50.860;4.286;2024-03-08T04:24:28;26.13;;;13.18;;
22737;SDS011;11536;50.860;4.286;2024-03-08T04:26:56;26.38;;;12.38;;
22737;SDS011;11536;50.860;4.286;2024-03-08T04:29:22;28.67;;;12.85;;
22737;SDS011;11536;50.860;4.286;2024-03-08T04:31:48;23.52;;;12.48;;
22737;SDS011;11536;50.860;4.286;2024-03-08T04:34:14;27.80;;;13.10;;
22737;SDS011;11536;50.860;4.286;2024-03-08T04:36:39;26.20;;;13.15;;
22737;SDS011;11536;50.860;4.286;2024-03-08T04:39:05;25.17;;;12.85;;
22737;SDS011;11536;50.860;4.286;2024-03-08T04:41:34;29.83;;;13.95;;
22737;SDS011;11536;50.860;4.286;2024-03-08T04:44:02;27.15;;;13.63;;
22737;SDS011;11536;50.860;4.286;2024-03-08T04:46:28;27.77;;;13.38;;
22737;SDS011;11536;50.860;4.286;2024-03-08T04:48:53;26.70;;;12.98;;
22737;SDS011;11536;50.860;4.286;2024-03-08T04:51:19;26.40;;;12.68;;
22737;SDS011;11536;50.860;4.286;2024-03-08T04:53:44;27.80;;;13.32;;
22737;SDS011;11536;50.860;4.286;2024-03-08T04:56:10;26.85;;;12.90;;
22737;SDS011;11536;50.860;4.286;2024-03-08T04:58:36;26.23;;;12.50;;
22737;SDS011;11536;50.860;4.286;2024-03-08T05:01:01;26.88;;;12.75;;
22737;SDS011;11536;50.860;4.286;2024-03-08T05:03:27;24.10;;;12.50;;
22737;SDS011;11536;50.860;4.286;2024-03-08T05:05:53;26.48;;;12.43;;
22737;SDS011;11536;50.860;4.286;2024-03-08T05:08:19;26.80;;;12.88;;
22737;SDS011;11536;50.860;4.286;2024-03-08T05:10:45;25.00;;;12.55;;
22737;SDS011;11536;50.860;4.286;2024-03-08T05:13:11;25.42;;;12.13;;
22737;SDS011;11536;50.860;4.286;2024-03-08T05:15:38;29.48;;;13.18;;
22737;SDS011;11536;50.860;4.286;2024-03-08T05:18:04;30.05;;;12.63;;
22737;SDS011;11536;50.860;4.286;2024-03-08T05:20:30;28.40;;;13.77;;
22737;SDS011;11536;50.860;4.286;2024-03-08T05:22:56;29.30;;;14.07;;
22737;SDS011;11536;50.860;4.286;2024-03-08T05:25:28;26.38;;;12.05;;
22737;SDS011;11536;50.860;4.286;2024-03-08T05:27:53;27.17;;;12.15;;
22737;SDS011;11536;50.860;4.286;2024-03-08T05:30:19;29.35;;;13.63;;
22737;SDS011;11536;50.860;4.286;2024-03-08T05:32:46;30.20;;;12.77;;
22737;SDS011;11536;50.860;4.286;2024-03-08T05:35:12;28.13;;;13.52;;
22737;SDS011;11536;50.860;4.286;2024-03-08T05:37:41;24.75;;;12.70;;
22737;SDS011;11536;50.860;4.286;2024-03-08T05:40:07;28.63;;;12.70;;
22737;SDS011;11536;50.860;4.286;2024-03-08T05:42:36;26.50;;;12.85;;
22737;SDS011;11536;50.860;4.286;2024-03-08T05:45:05;28.10;;;12.45;;
22737;SDS011;11536;50.860;4.286;2024-03-08T05:47:31;26.63;;;12.55;;
22737;SDS011;11536;50.860;4.286;2024-03-08T05:50:00;28.48;;;12.70;;
22737;SDS011;11536;50.860;4.286;2024-03-08T05:52:26;27.55;;;12.27;;
22737;SDS011;11536;50.860;4.286;2024-03-08T05:54:52;26.30;;;12.38;;
22737;SDS011;11536;50.860;4.286;2024-03-08T05:57:18;30.45;;;13.32;;
22737;SDS011;11536;50.860;4.286;2024-03-08T05:59:44;30.17;;;13.45;;
22737;SDS011;11536;50.860;4.286;2024-03-08T06:02:09;27.77;;;12.52;;
22737;SDS011;11536;50.860;4.286;2024-03-08T06:04:35;30.08;;;13.55;;
22737;SDS011;11536;50.860;4.286;2024-03-08T06:07:01;25.90;;;12.00;;
22737;SDS011;11536;50.860;4.286;2024-03-08T06:09:28;31.63;;;13.18;;
22737;SDS011;11536;50.860;4.286;2024-03-08T06:11:54;29.52;;;13.00;;
22737;SDS011;11536;50.860;4.286;2024-03-08T06:14:22;27.73;;;12.77;;
22737;SDS011;11536;50.860;4.286;2024-03-08T06:16:48;29.60;;;12.25;;
22737;SDS011;11536;50.860;4.286;2024-03-08T06:19:15;28.67;;;12.65;;
22737;SDS011;11536;50.860;4.286;2024-03-08T06:21:41;28.45;;;12.63;;
22737;SDS011;11536;50.860;4.286;2024-03-08T06:24:06;32.13;;;13.07;;
22737;SDS011;11536;50.860;4.286;2024-03-08T06:26:32;27.98;;;12.98;;
22737;SDS011;11536;50.860;4.286;2024-03-08T06:28:58;24.50;;;12.10;;
22737;SDS011;11536;50.860;4.286;2024-03-08T06:31:23;31.60;;;13.13;;
22737;SDS011;11536;50.860;4.286;2024-03-08T06:33:49;30.17;;;13.55;;
22737;SDS011;11536;50.860;4.286;2024-03-08T06:36:18;26.00;;;12.23;;
22737;SDS011;11536;50.860;4.286;2024-03-08T06:38:45;25.73;;;11.77;;
22737;SDS011;11536;50.860;4.286;2024-03-08T06:41:11;29.67;;;12.20;;
22737;SDS011;11536;50.860;4.286;2024-03-08T06:43:42;29.55;;;12.65;;
22737;SDS011;11536;50.860;4.286;2024-03-08T06:46:09;28.38;;;12.32;;
22737;SDS011;11536;50.860;4.286;2024-03-08T06:48:35;25.77;;;12.52;;
22737;SDS011;11536;50.860;4.286;2024-03-08T06:51:02;28.38;;;13.55;;
22737;SDS011;11536;50.860;4.286;2024-03-08T06:53:29;25.65;;;12.05;;
22737;SDS011;11536;50.860;4.286;2024-03-08T06:55:54;30.55;;;13.07;;
22737;SDS011;11536;50.860;4.286;2024-03-08T06:58:20;28.88;;;12.80;;
22737;SDS011;11536;50.860;4.286;2024-03-08T07:00:45;28.65;;;13.50;;
22737;SDS011;11536;50.860;4.286;2024-03-08T07:03:11;26.48;;;12.75;;
22737;SDS011;11536;50.860;4.286;2024-03-08T07:05:42;28.13;;;12.68;;
22737;SDS011;11536;50.860;4.286;2024-03-08T07:08:07;27.42;;;13.02;;
22737;SDS011;11536;50.860;4.286;2024-03-08T07:10:33;26.35;;;12.00;;
22737;SDS011;11536;50.860;4.286;2024-03-08T07:12:59;32.30;;;13.95;;
22737;SDS011;11536;50.860;4.286;2024-03-08T07:15:27;30.38;;;13.27;;
22737;SDS011;11536;50.860;4.286;2024-03-08T07:17:58;30.52;;;13.60;;
22737;SDS011;11536;50.860;4.286;2024-03-08T07:20:24;28.58;;;11.63;;
22737;SDS011;11536;50.860;4.286;2024-03-08T07:22:50;24.38;;;12.32;;
22737;SDS011;11536;50.860;4.286;2024-03-08T07:25:16;25.55;;;11.75;;
22737;SDS011;11536;50.860;4.286;2024-03-08T07:27:52;25.83;;;12.55;;
22737;SDS011;11536;50.860;4.286;2024-03-08T07:30:22;31.33;;;12.90;;
22737;SDS011;11536;50.860;4.286;2024-03-08T07:33:07;28.52;;;12.85;;
22737;SDS011;11536;50.860;4.286;2024-03-08T07:35:33;28.17;;;12.82;;
22737;SDS011;11536;50.860;4.286;2024-03-08T07:38:05;25.90;;;11.38;;
22737;SDS011;11536;50.860;4.286;2024-03-08T07:40:37;27.33;;;13.32;;
22737;SDS011;11536;50.860;4.286;2024-03-08T07:43:06;26.77;;;12.18;;
22737;SDS011;11536;50.860;4.286;2024-03-08T07:45:32;29.92;;;11.55;;
22737;SDS011;11536;50.860;4.286;2024-03-08T07:47:58;35.03;;;12.73;;
22737;SDS011;11536;50.860;4.286;2024-03-08T07:50:23;27.17;;;12.75;;
22737;SDS011;11536;50.860;4.286;2024-03-08T07:52:49;24.75;;;10.60;;
22737;SDS011;11536;50.860;4.286;2024-03-08T07:55:15;26.70;;;12.35;;
22737;SDS011;11536;50.860;4.286;2024-03-08T07:57:40;25.27;;;12.68;;
22737;SDS011;11536;50.860;4.286;2024-03-08T08:00:07;26.48;;;12.05;;
22737;SDS011;11536;50.860;4.286;2024-03-08T08:02:34;26.25;;;12.70;;
22737;SDS011;11536;50.860;4.286;2024-03-08T08:05:01;27.70;;;12.52;;
22737;SDS011;11536;50.860;4.286;2024-03-08T08:08:02;23.85;;;11.52;;
22737;SDS011;11536;50.860;4.286;2024-03-08T08:10:31;29.15;;;12.18;;
22737;SDS011;11536;50.860;4.286;2024-03-08T08:12:58;25.83;;;11.73;;
22737;SDS011;11536;50.860;4.286;2024-03-08T08:15:25;27.20;;;11.70;;
22737;SDS011;11536;50.860;4.286;2024-03-08T08:17:53;28.38;;;12.18;;
22737;SDS011;11536;50.860;4.286;2024-03-08T08:20:22;24.73;;;11.30;;
22737;SDS011;11536;50.860;4.286;2024-03-08T08:22:59;28.10;;;11.88;;
22737;SDS011;11536;50.860;4.286;2024-03-08T08:25:29;25.55;;;12.05;;
22737;SDS011;11536;50.860;4.286;2024-03-08T08:27:55;29.92;;;12.02;;
22737;SDS011;11536;50.860;4.286;2024-03-08T08:30:21;29.92;;;12.52;;
22737;SDS011;11536;50.860;4.286;2024-03-08T08:32:49;26.13;;;11.57;;
22737;SDS011;11536;50.860;4.286;2024-03-08T08:35:17;26.20;;;12.00;;
22737;SDS011;11536;50.860;4.286;2024-03-08T08:37:45;26.02;;;11.07;;
22737;SDS011;11536;50.860;4.286;2024-03-08T08:40:12;28.40;;;11.90;;
22737;SDS011;11536;50.860;4.286;2024-03-08T08:42:42;26.63;;;10.93;;
22737;SDS011;11536;50.860;4.286;2024-03-08T08:45:08;26.85;;;11.45;;
22737;SDS011;11536;50.860;4.286;2024-03-08T08:47:37;28.42;;;11.65;;
22737;SDS011;11536;50.860;4.286;2024-03-08T08:50:03;25.80;;;11.77;;
22737;SDS011;11536;50.860;4.286;2024-03-08T08:52:33;26.45;;;11.80;;
22737;SDS011;11536;50.860;4.286;2024-03-08T08:54:59;26.15;;;11.57;;
22737;SDS011;11536;50.860;4.286;2024-03-08T08:57:25;26.45;;;12.05;;
22737;SDS011;11536;50.860;4.286;2024-03-08T08:59:52;24.52;;;10.73;;
22737;SDS011;11536;50.860;4.286;2024-03-08T09:02:17;25.10;;;11.90;;
22737;SDS011;11536;50.860;4.286;2024-03-08T09:04:45;25.35;;;11.55;;
22737;SDS011;11536;50.860;4.286;2024-03-08T09:07:12;22.90;;;11.65;;
22737;SDS011;11536;50.860;4.286;2024-03-08T09:09:38;25.13;;;11.48;;
22737;SDS011;11536;50.860;4.286;2024-03-08T09:12:04;22.48;;;10.27;;
22737;SDS011;11536;50.860;4.286;2024-03-08T09:14:30;22.17;;;10.50;;
22737;SDS011;11536;50.860;4.286;2024-03-08T09:16:55;26.27;;;10.85;;
22737;SDS011;11536;50.860;4.286;2024-03-08T09:19:21;26.58;;;10.68;;
22737;SDS011;11536;50.860;4.286;2024-03-08T09:21:50;27.63;;;11.68;;
22737;SDS011;11536;50.860;4.286;2024-03-08T09:24:16;25.45;;;10.93;;
22737;SDS011;11536;50.860;4.286;2024-03-08T09:26:42;28.15;;;11.45;;
22737;SDS011;11536;50.860;4.286;2024-03-08T09:29:08;23.90;;;10.75;;
22737;SDS011;11536;50.860;4.286;2024-03-08T09:31:35;24.02;;;10.82;;
22737;SDS011;11536;50.860;4.286;2024-03-08T09:34:03;22.38;;;10.43;;
22737;SDS011;11536;50.860;4.286;2024-03-08T09:36:28;22.83;;;10.23;;
22737;SDS011;11536;50.860;4.286;2024-03-08T09:38:55;22.02;;;9.80;;
22737;SDS011;11536;50.860;4.286;2024-03-08T09:41:20;22.17;;;10.55;;
22737;SDS011;11536;50.860;4.286;2024-03-08T09:43:46;23.58;;;10.10;;
22737;SDS011;11536;50.860;4.286;2024-03-08T09:46:12;21.85;;;9.90;;
22737;SDS011;11536;50.860;4.286;2024-03-08T09:48:39;22.33;;;10.10;;
22737;SDS011;11536;50.860;4.286;2024-03-08T09:51:06;23.05;;;10.90;;
22737;SDS011;11536;50.860;4.286;2024-03-08T09:53:33;21.33;;;9.32;;
22737;SDS011;11536;50.860;4.286;2024-03-08T09:55:58;25.85;;;10.52;;
22737;SDS011;11536;50.860;4.286;2024-03-08T09:58:24;22.00;;;10.00;;
22737;SDS011;11536;50.860;4.286;2024-03-08T10:00:52;22.27;;;9.43;;
22737;SDS011;11536;50.860;4.286;2024-03-08T10:03:21;22.92;;;9.77;;
22737;SDS011;11536;50.860;4.286;2024-03-08T10:05:47;24.02;;;9.70;;
22737;SDS011;11536;50.860;4.286;2024-03-08T10:08:13;20.20;;;9.80;;
22737;SDS011;11536;50.860;4.286;2024-03-08T10:10:39;23.80;;;10.30;;
22737;SDS011;11536;50.860;4.286;2024-03-08T10:13:06;25.20;;;10.00;;
22737;SDS011;11536;50.860;4.286;2024-03-08T10:15:32;20.98;;;10.32;;
22737;SDS011;11536;50.860;4.286;2024-03-08T10:18:00;21.17;;;9.48;;
22737;SDS011;11536;50.860;4.286;2024-03-08T10:20:30;22.67;;;10.35;;
22737;SDS011;11536;50.860;4.286;2024-03-08T10:22:59;20.80;;;9.27;;
22737;SDS011;11536;50.860;4.286;2024-03-08T10:25:28;26.10;;;10.43;;
22737;SDS011;11536;50.860;4.286;2024-03-08T10:27:55;20.65;;;9.52;;
22737;SDS011;11536;50.860;4.286;2024-03-08T10:30:21;20.83;;;9.63;;
22737;SDS011;11536;50.860;4.286;2024-03-08T10:32:47;20.38;;;9.65;;
22737;SDS011;11536;50.860;4.286;2024-03-08T10:35:13;21.50;;;8.98;;
22737;SDS011;11536;50.860;4.286;2024-03-08T10:40:18;21.55;;;9.80;;
22737;SDS011;11536;50.860;4.286;2024-03-08T10:42:47;14.48;;;6.38;;
22737;SDS011;11536;50.860;4.286;2024-03-08T10:45:39;22.48;;;8.60;;
22737;SDS011;11536;50.860;4.286;2024-03-08T10:53:28;22.95;;;9.68;;
22737;SDS011;11536;50.860;4.286;2024-03-08T10:55:56;24.48;;;9.90;;
22737;SDS011;11536;50.860;4.286;2024-03-08T10:58:23;19.65;;;8.80;;
22737;SDS011;11536;50.860;4.286;2024-03-08T11:00:52;22.35;;;9.68;;
22737;SDS011;11536;50.860;4.286;2024-03-08T11:06:13;19.73;;;9.43;;
22737;SDS011;11536;50.860;4.286;2024-03-08T11:08:43;20.33;;;9.18;;
22737;SDS011;11536;50.860;4.286;2024-03-08T11:11:33;21.55;;;9.25;;
22737;SDS011;11536;50.860;4.286;2024-03-08T11:14:02;18.20;;;8.93;;
22737;SDS011;11536;50.860;4.286;2024-03-08T11:18:59;21.50;;;9.68;;
22737;SDS011;11536;50.860;4.286;2024-03-08T11:21:32;19.58;;;9.57;;
22737;SDS011;11536;50.860;4.286;2024-03-08T11:24:08;19.15;;;8.55;;
22737;SDS011;11536;50.860;4.286;2024-03-08T11:26:38;17.75;;;9.13;;
22737;SDS011;11536;50.860;4.286;2024-03-08T11:34:32;24.40;;;10.48;;
22737;SDS011;11536;50.860;4.286;2024-03-08T11:36:59;22.83;;;10.30;;
22737;SDS011;11536;50.860;4.286;2024-03-08T11:39:25;20.17;;;9.48;;
22737;SDS011;11536;50.860;4.286;2024-03-08T11:41:53;22.05;;;9.75;;
22737;SDS011;11536;50.860;4.286;2024-03-08T11:44:20;21.48;;;10.00;;
22737;SDS011;11536;50.860;4.286;2024-03-08T11:46:46;21.60;;;9.40;;
22737;SDS011;11536;50.860;4.286;2024-03-08T11:49:15;20.30;;;10.02;;
22737;SDS011;11536;50.860;4.286;2024-03-08T11:51:41;18.02;;;8.70;;
22737;SDS011;11536;50.860;4.286;2024-03-08T11:54:11;20.65;;;8.77;;
22737;SDS011;11536;50.860;4.286;2024-03-08T11:56:38;18.48;;;9.10;;
22737;SDS011;11536;50.860;4.286;2024-03-08T11:59:04;20.80;;;9.63;;
22737;SDS011;11536;50.860;4.286;2024-03-08T12:01:30;18.60;;;9.43;;
22737;SDS011;11536;50.860;4.286;2024-03-08T12:03:56;20.17;;;9.10;;
22737;SDS011;11536;50.860;4.286;2024-03-08T12:06:25;21.25;;;9.23;;
22737;SDS011;11536;50.860;4.286;2024-03-08T12:08:52;20.48;;;9.65;;
22737;SDS011;11536;50.860;4.286;2024-03-08T12:11:18;19.35;;;9.13;;
22737;SDS011;11536;50.860;4.286;2024-03-08T12:13:50;21.02;;;9.77;;
22737;SDS011;11536;50.860;4.286;2024-03-08T12:16:19;19.50;;;8.80;;
22737;SDS011;11536;50.860;4.286;2024-03-08T12:18:46;22.20;;;9.15;;
22737;SDS011;11536;50.860;4.286;2024-03-08T12:21:13;18.42;;;9.25;;
22737;SDS011;11536;50.860;4.286;2024-03-08T12:23:42;20.60;;;9.07;;
22737;SDS011;11536;50.860;4.286;2024-03-08T12:26:10;20.23;;;9.10;;
22737;SDS011;11536;50.860;4.286;2024-03-08T12:28:38;22.05;;;9.30;;
22737;SDS011;11536;50.860;4.286;2024-03-08T12:31:10;19.00;;;8.98;;
22737;SDS011;11536;50.860;4.286;2024-03-08T12:36:16;19.20;;;9.45;;
22737;SDS011;11536;50.860;4.286;2024-03-08T12:38:48;19.48;;;9.25;;
22737;SDS011;11536;50.860;4.286;2024-03-08T12:41:14;17.88;;;9.30;;
22737;SDS011;11536;50.860;4.286;2024-03-08T12:43:44;21.75;;;9.80;;
22737;SDS011;11536;50.860;4.286;2024-03-08T12:46:19;18.95;;;8.60;;
22737;SDS011;11536;50.860;4.286;2024-03-08T12:48:46;20.42;;;9.73;;
22737;SDS011;11536;50.860;4.286;2024-03-08T12:51:12;20.45;;;9.15;;
22737;SDS011;11536;50.860;4.286;2024-03-08T12:53:39;19.65;;;9.15;;
22737;SDS011;11536;50.860;4.286;2024-03-08T12:56:09;19.77;;;9.68;;
22737;SDS011;11536;50.860;4.286;2024-03-08T12:58:35;17.23;;;8.40;;
22737;SDS011;11536;50.860;4.286;2024-03-08T13:01:02;17.33;;;8.60;;
22737;SDS011;11536;50.860;4.286;2024-03-08T13:03:30;17.20;;;8.75;;
22737;SDS011;11536;50.860;4.286;2024-03-08T13:05:56;19.67;;;9.15;;
22737;SDS011;11536;50.860;4.286;2024-03-08T13:08:22;18.02;;;9.60;;
22737;SDS011;11536;50.860;4.286;2024-03-08T13:10:50;18.95;;;8.88;;
22737;SDS011;11536;50.860;4.286;2024-03-08T13:13:16;19.23;;;8.70;;
22737;SDS011;11536;50.860;4.286;2024-03-08T13:15:42;17.25;;;8.20;;
22737;SDS011;11536;50.860;4.286;2024-03-08T13:18:08;18.02;;;8.18;;
22737;SDS011;11536;50.860;4.286;2024-03-08T13:20:34;17.48;;;8.80;;
22737;SDS011;11536;50.860;4.286;2024-03-08T13:23:03;17.20;;;8.68;;
22737;SDS011;11536;50.860;4.286;2024-03-08T13:25:30;15.65;;;8.23;;
22737;SDS011;11536;50.860;4.286;2024-03-08T13:27:58;17.33;;;8.80;;
22737;SDS011;11536;50.860;4.286;2024-03-08T13:30:25;19.08;;;9.38;;
22737;SDS011;11536;50.860;4.286;2024-03-08T13:32:54;19.13;;;9.18;;
22737;SDS011;11536;50.860;4.286;2024-03-08T13:35:20;17.00;;;8.27;;
22737;SDS011;11536;50.860;4.286;2024-03-08T13:37:53;16.42;;;8.20;;
22737;SDS011;11536;50.860;4.286;2024-03-08T13:40:19;17.35;;;8.55;;
22737;SDS011;11536;50.860;4.286;2024-03-08T13:42:45;18.23;;;8.35;;
22737;SDS011;11536;50.860;4.286;2024-03-08T13:45:12;16.00;;;8.10;;
22737;SDS011;11536;50.860;4.286;2024-03-08T13:47:39;15.52;;;7.43;;
22737;SDS011;11536;50.860;4.286;2024-03-08T13:50:06;16.50;;;8.15;;
22737;SDS011;11536;50.860;4.286;2024-03-08T13:52:38;15.65;;;8.23;;
22737;SDS011;11536;50.860;4.286;2024-03-08T13:55:05;15.57;;;8.20;;
22737;SDS011;11536;50.860;4.286;2024-03-08T13:57:32;16.98;;;8.60;;
22737;SDS011;11536;50.860;4.286;2024-03-08T13:59:58;16.90;;;8.15;;
22737;SDS011;11536;50.860;4.286;2024-03-08T14:02:23;16.20;;;8.00;;
22737;SDS011;11536;50.860;4.286;2024-03-08T14:04:54;20.38;;;9.80;;
22737;SDS011;11536;50.860;4.286;2024-03-08T14:07:20;20.63;;;8.88;;
22737;SDS011;11536;50.860;4.286;2024-03-08T14:09:46;18.23;;;8.98;;
22737;SDS011;11536;50.860;4.286;2024-03-08T14:12:11;20.15;;;10.50;;
22737;SDS011;11536;50.860;4.286;2024-03-08T14:14:38;16.50;;;8.73;;
22737;SDS011;11536;50.860;4.286;2024-03-08T14:17:05;19.55;;;9.52;;
22737;SDS011;11536;50.860;4.286;2024-03-08T14:19:34;16.38;;;8.57;;
22737;SDS011;11536;50.860;4.286;2024-03-08T14:22:00;14.55;;;7.88;;
22737;SDS011;11536;50.860;4.286;2024-03-08T14:24:29;18.33;;;8.70;;
22737;SDS011;11536;50.860;4.286;2024-03-08T14:27:00;15.65;;;8.02;;
22737;SDS011;11536;50.860;4.286;2024-03-08T14:29:28;16.98;;;8.32;;
22737;SDS011;11536;50.860;4.286;2024-03-08T14:31:54;18.00;;;8.90;;
22737;SDS011;11536;50.860;4.286;2024-03-08T14:34:26;17.58;;;8.50;;
22737;SDS011;11536;50.860;4.286;2024-03-08T14:36:54;15.30;;;7.97;;
22737;SDS011;11536;50.860;4.286;2024-03-08T14:39:20;17.27;;;7.55;;
22737;SDS011;11536;50.860;4.286;2024-03-08T14:41:50;14.80;;;8.02;;
22737;SDS011;11536;50.860;4.286;2024-03-08T14:44:18;18.73;;;8.48;;
22737;SDS011;11536;50.860;4.286;2024-03-08T14:46:44;15.30;;;7.82;;